sensor_id;sensor_type;location;lat;lon;timestamp;pressure;altitude;pressure_sealevel;temperature;humidity
70544;BME280;58097;48.364;-1.224;2023-01-29T00:01:51;101208.41;;;3.83;79.16
70544;BME280;58097;48.364;-1.224;2023-01-29T00:04:17;101205.59;;;3.84;78.83
70544;BME280;58097;48.364;-1.224;2023-01-29T00:06:42;101205.75;;;3.81;78.58
70544;BME280;58097;48.364;-1.224;2023-01-29T00:09:08;101217.84;;;3.77;78.85
70544;BME280;58097;48.364;-1.224;2023-01-29T00:11:34;101210.63;;;3.76;78.83
70544;BME280;58097;48.364;-1.224;2023-01-29T00:14:00;101208.03;;;3.73;78.96
70544;BME280;58097;48.364;-1.224;2023-01-29T00:16:25;101200.56;;;3.77;79.05
70544;BME280;58097;48.364;-1.224;2023-01-29T00:18:50;101199.69;;;3.76;79.04
70544;BME280;58097;48.364;-1.224;2023-01-29T00:21:18;101198.84;;;3.74;79.24
70544;BME280;58097;48.364;-1.224;2023-01-29T00:23:44;101194.22;;;3.76;78.96
70544;BME280;58097;48.364;-1.224;2023-01-29T00:26:10;101193.28;;;3.76;79.22
70544;BME280;58097;48.364;-1.224;2023-01-29T00:28:37;101190.50;;;3.77;79.13
70544;BME280;58097;48.364;-1.224;2023-01-29T00:31:09;101194.13;;;3.78;78.96
70544;BME280;58097;48.364;-1.224;2023-01-29T00:33:35;101183.28;;;3.76;78.99
70544;BME280;58097;48.364;-1.224;2023-01-29T00:36:04;101179.72;;;3.74;79.06
70544;BME280;58097;48.364;-1.224;2023-01-29T00:38:32;101183.28;;;3.76;79.04
70544;BME280;58097;48.364;-1.224;2023-01-29T00:41:03;101187.03;;;3.73;78.60
70544;BME280;58097;48.364;-1.224;2023-01-29T00:43:47;101193.56;;;3.71;78.90
70544;BME280;58097;48.364;-1.224;2023-01-29T00:46:31;101185.28;;;3.72;78.80
70544;BME280;58097;48.364;-1.224;2023-01-29T00:48:56;101194.53;;;3.70;78.63
70544;BME280;58097;48.364;-1.224;2023-01-29T00:51:22;101187.38;;;3.67;78.90
70544;BME280;58097;48.364;-1.224;2023-01-29T00:53:47;101180.94;;;3.68;78.72
70544;BME280;58097;48.364;-1.224;2023-01-29T00:56:12;101185.72;;;3.65;78.56
70544;BME280;58097;48.364;-1.224;2023-01-29T00:58:38;101190.47;;;3.61;78.83
70544;BME280;58097;48.364;-1.224;2023-01-29T01:01:03;101192.25;;;3.62;79.18
70544;BME280;58097;48.364;-1.224;2023-01-29T01:03:29;101192.25;;;3.62;78.99
70544;BME280;58097;48.364;-1.224;2023-01-29T01:06:08;101190.38;;;3.63;78.72
70544;BME280;58097;48.364;-1.224;2023-01-29T01:08:34;101184.03;;;3.62;78.66
70544;BME280;58097;48.364;-1.224;2023-01-29T01:11:18;101176.63;;;3.64;78.81
70544;BME280;58097;48.364;-1.224;2023-01-29T01:13:44;101178.41;;;3.65;78.78
70544;BME280;58097;48.364;-1.224;2023-01-29T01:16:15;101178.41;;;3.65;78.69
70544;BME280;58097;48.364;-1.224;2023-01-29T01:18:41;101178.47;;;3.64;78.57
70544;BME280;58097;48.364;-1.224;2023-01-29T01:21:07;101176.91;;;3.60;78.48
70544;BME280;58097;48.364;-1.224;2023-01-29T01:23:33;101179.53;;;3.61;78.73
70544;BME280;58097;48.364;-1.224;2023-01-29T01:25:58;101181.31;;;3.62;78.80
70544;BME280;58097;48.364;-1.224;2023-01-29T01:28:25;101188.44;;;3.65;78.73
70544;BME280;58097;48.364;-1.224;2023-01-29T01:30:50;101184.75;;;3.66;78.29
70544;BME280;58097;48.364;-1.224;2023-01-29T01:33:16;101179.38;;;3.64;78.34
70544;BME280;58097;48.364;-1.224;2023-01-29T01:35:41;101188.44;;;3.65;78.50
70544;BME280;58097;48.364;-1.224;2023-01-29T01:38:06;101192.31;;;3.61;78.17
70544;BME280;58097;48.364;-1.224;2023-01-29T01:40:32;101192.41;;;3.59;78.54
70544;BME280;58097;48.364;-1.224;2023-01-29T01:42:59;101198.84;;;3.58;78.65
70544;BME280;58097;48.364;-1.224;2023-01-29T01:45:28;101200.38;;;3.47;78.32
70544;BME280;58097;48.364;-1.224;2023-01-29T01:50:35;101216.00;;;3.45;78.67
70544;BME280;58097;48.364;-1.224;2023-01-29T01:53:09;101217.72;;;3.47;78.77
70544;BME280;58097;48.364;-1.224;2023-01-29T01:55:39;101217.63;;;3.49;78.98
70544;BME280;58097;48.364;-1.224;2023-01-29T01:58:12;101207.47;;;3.51;78.80
70544;BME280;58097;48.364;-1.224;2023-01-29T02:00:40;101191.09;;;3.51;78.87
70544;BME280;58097;48.364;-1.224;2023-01-29T02:03:06;101180.84;;;3.54;78.81
70544;BME280;58097;48.364;-1.224;2023-01-29T02:05:54;101186.31;;;3.54;78.08
70544;BME280;58097;48.364;-1.224;2023-01-29T02:08:59;101183.84;;;3.50;78.34
70544;BME280;58097;48.364;-1.224;2023-01-29T02:11:45;101183.75;;;3.51;78.63
70544;BME280;58097;48.364;-1.224;2023-01-29T02:14:11;101185.44;;;3.54;78.51
70544;BME280;58097;48.364;-1.224;2023-01-29T02:16:37;101182.72;;;3.54;78.32
70544;BME280;58097;48.364;-1.224;2023-01-29T02:19:04;101184.56;;;3.53;78.40
70544;BME280;58097;48.364;-1.224;2023-01-29T02:24:33;101180.16;;;3.51;78.81
70544;BME280;58097;48.364;-1.224;2023-01-29T02:27:23;101174.59;;;3.52;78.86
70544;BME280;58097;48.364;-1.224;2023-01-29T02:38:55;101162.69;;;3.53;78.92
70544;BME280;58097;48.364;-1.224;2023-01-29T02:41:24;101158.09;;;3.54;78.85
70544;BME280;58097;48.364;-1.224;2023-01-29T02:43:54;101159.16;;;3.51;78.72
70544;BME280;58097;48.364;-1.224;2023-01-29T02:49:30;101164.88;;;3.47;78.48
70544;BME280;58097;48.364;-1.224;2023-01-29T02:52:02;101158.50;;;3.46;78.73
70544;BME280;58097;48.364;-1.224;2023-01-29T02:54:54;101145.81;;;3.45;78.67
70544;BME280;58097;48.364;-1.224;2023-01-29T02:57:29;101148.47;;;3.47;78.74
70544;BME280;58097;48.364;-1.224;2023-01-29T03:00:16;101134.97;;;3.43;78.47
70544;BME280;58097;48.364;-1.224;2023-01-29T03:08:10;101138.69;;;3.42;78.80
70544;BME280;58097;48.364;-1.224;2023-01-29T03:10:43;101146.09;;;3.40;78.84
70544;BME280;58097;48.364;-1.224;2023-01-29T03:13:20;101154.28;;;3.40;78.73
70544;BME280;58097;48.364;-1.224;2023-01-29T03:15:54;101159.56;;;3.43;78.83
70544;BME280;58097;48.364;-1.224;2023-01-29T03:18:27;101153.22;;;3.43;78.78
70544;BME280;58097;48.364;-1.224;2023-01-29T03:21:00;101153.31;;;3.41;78.53
70544;BME280;58097;48.364;-1.224;2023-01-29T03:23:29;101153.41;;;3.40;78.64
70544;BME280;58097;48.364;-1.224;2023-01-29T03:26:16;101149.06;;;3.36;78.62
70544;BME280;58097;48.364;-1.224;2023-01-29T03:29:02;101150.22;;;3.32;78.55
70544;BME280;58097;48.364;-1.224;2023-01-29T03:31:48;101147.66;;;3.29;78.70
70544;BME280;58097;48.364;-1.224;2023-01-29T03:34:42;101152.59;;;3.22;78.27
70544;BME280;58097;48.364;-1.224;2023-01-29T03:37:28;101144.47;;;3.21;78.62
70544;BME280;58097;48.364;-1.224;2023-01-29T03:39:58;101140.88;;;3.20;78.76
70544;BME280;58097;48.364;-1.224;2023-01-29T03:42:40;101149.06;;;3.20;78.76
70544;BME280;58097;48.364;-1.224;2023-01-29T03:46:00;101151.69;;;3.22;78.74
70544;BME280;58097;48.364;-1.224;2023-01-29T03:48:59;101146.06;;;3.25;78.45
70544;BME280;58097;48.364;-1.224;2023-01-29T03:56:48;101154.19;;;3.26;78.14
70544;BME280;58097;48.364;-1.224;2023-01-29T03:59:38;101157.88;;;3.25;78.02
70544;BME280;58097;48.364;-1.224;2023-01-29T04:02:09;101157.16;;;3.22;77.72
70544;BME280;58097;48.364;-1.224;2023-01-29T04:04:38;101157.25;;;3.20;78.34
70544;BME280;58097;48.364;-1.224;2023-01-29T04:07:17;101150.91;;;3.20;77.67
70544;BME280;58097;48.364;-1.224;2023-01-29T04:09:51;101155.22;;;3.24;78.02
70544;BME280;58097;48.364;-1.224;2023-01-29T04:12:23;101156.13;;;3.24;77.57
70544;BME280;58097;48.364;-1.224;2023-01-29T04:14:52;101159.72;;;3.25;77.70
70544;BME280;58097;48.364;-1.224;2023-01-29T04:17:22;101153.22;;;3.27;78.16
70544;BME280;58097;48.364;-1.224;2023-01-29T04:19:49;101155.78;;;3.30;78.13
70544;BME280;58097;48.364;-1.224;2023-01-29T04:22:16;101147.41;;;3.33;78.21
70544;BME280;58097;48.364;-1.224;2023-01-29T04:24:43;101146.44;;;3.34;77.86
70544;BME280;58097;48.364;-1.224;2023-01-29T04:27:38;101157.44;;;3.33;78.02
70544;BME280;58097;48.364;-1.224;2023-01-29T04:36:09;101152.25;;;3.28;78.19
70544;BME280;58097;48.364;-1.224;2023-01-29T04:49:46;101147.03;;;3.24;78.05
70544;BME280;58097;48.364;-1.224;2023-01-29T04:52:34;101152.41;;;3.25;78.06
70544;BME280;58097;48.364;-1.224;2023-01-29T05:00:52;101133.91;;;3.30;77.91
70544;BME280;58097;48.364;-1.224;2023-01-29T05:03:19;101135.84;;;3.28;77.69
70544;BME280;58097;48.364;-1.224;2023-01-29T05:05:47;101135.13;;;3.25;77.61
70544;BME280;58097;48.364;-1.224;2023-01-29T05:08:16;101129.75;;;3.23;77.80
70544;BME280;58097;48.364;-1.224;2023-01-29T05:10:45;101138.94;;;3.22;78.28
70544;BME280;58097;48.364;-1.224;2023-01-29T05:13:13;101142.53;;;3.23;78.21
70544;BME280;58097;48.364;-1.224;2023-01-29T05:16:00;101143.25;;;3.26;77.96
70544;BME280;58097;48.364;-1.224;2023-01-29T05:18:29;101145.97;;;3.26;78.04
70544;BME280;58097;48.364;-1.224;2023-01-29T05:20:56;101150.47;;;3.27;77.88
70544;BME280;58097;48.364;-1.224;2023-01-29T05:23:22;101141.50;;;3.25;77.93
70544;BME280;58097;48.364;-1.224;2023-01-29T05:25:49;101156.13;;;3.24;78.12
70544;BME280;58097;48.364;-1.224;2023-01-29T05:28:16;101154.97;;;3.28;77.94
70544;BME280;58097;48.364;-1.224;2023-01-29T05:30:52;101158.75;;;3.26;78.06
70544;BME280;58097;48.364;-1.224;2023-01-29T05:33:29;101161.41;;;3.27;77.90
70544;BME280;58097;48.364;-1.224;2023-01-29T05:35:57;101163.34;;;3.25;78.21
70544;BME280;58097;48.364;-1.224;2023-01-29T05:38:23;101161.31;;;3.29;78.22
70544;BME280;58097;48.364;-1.224;2023-01-29T05:40:49;101168.63;;;3.28;78.19
70544;BME280;58097;48.364;-1.224;2023-01-29T05:43:20;101164.22;;;3.26;78.12
70544;BME280;58097;48.364;-1.224;2023-01-29T05:45:53;101168.72;;;3.27;78.23
70544;BME280;58097;48.364;-1.224;2023-01-29T05:48:19;101168.63;;;3.28;78.04
70544;BME280;58097;48.364;-1.224;2023-01-29T05:50:44;101165.91;;;3.28;77.82
70544;BME280;58097;48.364;-1.224;2023-01-29T05:53:10;101169.34;;;3.32;77.55
70544;BME280;58097;48.364;-1.224;2023-01-29T05:55:35;101159.56;;;3.28;77.71
70544;BME280;58097;48.364;-1.224;2023-01-29T05:58:01;101158.59;;;3.29;77.64
70544;BME280;58097;48.364;-1.224;2023-01-29T06:00:26;101154.09;;;3.28;77.55
70544;BME280;58097;48.364;-1.224;2023-01-29T06:02:51;101161.41;;;3.27;77.75
70544;BME280;58097;48.364;-1.224;2023-01-29T06:05:17;101161.16;;;3.32;77.98
70544;BME280;58097;48.364;-1.224;2023-01-29T06:07:42;101164.94;;;3.29;78.09
70544;BME280;58097;48.364;-1.224;2023-01-29T06:10:14;101160.34;;;3.30;78.00
70544;BME280;58097;48.364;-1.224;2023-01-29T06:12:41;101159.72;;;3.25;77.94
70544;BME280;58097;48.364;-1.224;2023-01-29T06:15:06;101166.91;;;3.10;77.80
70544;BME280;58097;48.364;-1.224;2023-01-29T06:17:32;101166.97;;;3.08;77.77
70544;BME280;58097;48.364;-1.224;2023-01-29T06:19:57;101162.22;;;3.12;78.23
70544;BME280;58097;48.364;-1.224;2023-01-29T06:22:22;101171.22;;;3.14;77.98
70544;BME280;58097;48.364;-1.224;2023-01-29T06:24:48;101170.34;;;3.14;77.85
70544;BME280;58097;48.364;-1.224;2023-01-29T06:27:13;101162.06;;;3.15;78.17
70544;BME280;58097;48.364;-1.224;2023-01-29T06:29:38;101166.91;;;3.10;77.92
70544;BME280;58097;48.364;-1.224;2023-01-29T06:32:04;101165.31;;;3.06;78.35
70544;BME280;58097;48.364;-1.224;2023-01-29T06:34:29;101167.94;;;3.07;78.23
70544;BME280;58097;48.364;-1.224;2023-01-29T06:36:54;101163.13;;;3.13;78.17
70544;BME280;58097;48.364;-1.224;2023-01-29T06:39:20;101169.28;;;3.16;78.43
70544;BME280;58097;48.364;-1.224;2023-01-29T06:41:45;101179.09;;;3.20;78.43
70544;BME280;58097;48.364;-1.224;2023-01-29T06:44:10;101163.50;;;3.22;78.35
70544;BME280;58097;48.364;-1.224;2023-01-29T06:46:36;101166.16;;;3.24;78.39
70544;BME280;58097;48.364;-1.224;2023-01-29T06:49:01;101170.56;;;3.26;78.52
70544;BME280;58097;48.364;-1.224;2023-01-29T06:51:27;101161.66;;;3.23;78.29
70544;BME280;58097;48.364;-1.224;2023-01-29T06:53:52;101169.94;;;3.21;78.27
70544;BME280;58097;48.364;-1.224;2023-01-29T06:56:21;101171.72;;;3.22;78.51
70544;BME280;58097;48.364;-1.224;2023-01-29T06:58:46;101168.81;;;3.25;78.46
70544;BME280;58097;48.364;-1.224;2023-01-29T07:01:12;101159.66;;;3.26;78.50
70544;BME280;58097;48.364;-1.224;2023-01-29T07:03:37;101159.56;;;3.28;78.48
70544;BME280;58097;48.364;-1.224;2023-01-29T07:06:04;101155.78;;;3.30;78.62
70544;BME280;58097;48.364;-1.224;2023-01-29T07:08:29;101157.53;;;3.31;78.41
70544;BME280;58097;48.364;-1.224;2023-01-29T07:11:05;101161.22;;;3.30;78.50
70544;BME280;58097;48.364;-1.224;2023-01-29T07:13:31;101153.84;;;3.32;78.39
70544;BME280;58097;48.364;-1.224;2023-01-29T07:16:00;101154.63;;;3.34;78.49
70544;BME280;58097;48.364;-1.224;2023-01-29T07:18:27;101162.75;;;3.36;78.57
70544;BME280;58097;48.364;-1.224;2023-01-29T07:20:53;101163.00;;;3.31;78.30
70544;BME280;58097;48.364;-1.224;2023-01-29T07:23:18;101171.53;;;3.25;78.19
70544;BME280;58097;48.364;-1.224;2023-01-29T07:25:44;101177.97;;;3.24;78.25
70544;BME280;58097;48.364;-1.224;2023-01-29T07:28:10;101177.09;;;3.24;78.07
70544;BME280;58097;48.364;-1.224;2023-01-29T07:30:35;101173.22;;;3.28;78.40
70544;BME280;58097;48.364;-1.224;2023-01-29T07:33:05;101173.22;;;3.28;78.24
70544;BME280;58097;48.364;-1.224;2023-01-29T07:35:35;101169.53;;;3.29;78.26
70544;BME280;58097;48.364;-1.224;2023-01-29T07:38:01;101163.78;;;3.33;78.10
70544;BME280;58097;48.364;-1.224;2023-01-29T07:40:26;101157.34;;;3.34;77.99
70544;BME280;58097;48.364;-1.224;2023-01-29T07:42:57;101151.81;;;3.36;77.73
70544;BME280;58097;48.364;-1.224;2023-01-29T07:45:22;101154.38;;;3.39;77.77
70544;BME280;58097;48.364;-1.224;2023-01-29T07:47:51;101156.13;;;3.40;77.74
70544;BME280;58097;48.364;-1.224;2023-01-29T07:50:17;101151.53;;;3.40;77.36
70544;BME280;58097;48.364;-1.224;2023-01-29T07:52:42;101153.41;;;3.40;77.14
70544;BME280;58097;48.364;-1.224;2023-01-29T07:55:08;101152.50;;;3.39;77.07
70544;BME280;58097;48.364;-1.224;2023-01-29T07:57:33;101148.91;;;3.39;76.86
70544;BME280;58097;48.364;-1.224;2023-01-29T07:59:59;101133.66;;;3.35;76.77
70544;BME280;58097;48.364;-1.224;2023-01-29T08:02:24;101142.72;;;3.35;77.18
70544;BME280;58097;48.364;-1.224;2023-01-29T08:04:49;101142.56;;;3.38;77.50
70544;BME280;58097;48.364;-1.224;2023-01-29T08:07:15;101145.19;;;3.40;77.35
70544;BME280;58097;48.364;-1.224;2023-01-29T08:09:40;101152.34;;;3.42;77.18
70544;BME280;58097;48.364;-1.224;2023-01-29T08:12:05;101157.63;;;3.46;77.56
70544;BME280;58097;48.364;-1.224;2023-01-29T08:14:31;101153.00;;;3.48;77.38
70544;BME280;58097;48.364;-1.224;2023-01-29T08:16:56;101153.88;;;3.48;77.33
70544;BME280;58097;48.364;-1.224;2023-01-29T08:19:22;101155.56;;;3.51;77.31
70544;BME280;58097;48.364;-1.224;2023-01-29T08:21:47;101149.13;;;3.52;77.37
70544;BME280;58097;48.364;-1.224;2023-01-29T08:24:12;101153.69;;;3.51;77.34
70544;BME280;58097;48.364;-1.224;2023-01-29T08:26:38;101160.06;;;3.52;77.51
70544;BME280;58097;48.364;-1.224;2023-01-29T08:29:03;101159.88;;;3.55;77.51
70544;BME280;58097;48.364;-1.224;2023-01-29T08:31:28;101155.28;;;3.55;76.95
70544;BME280;58097;48.364;-1.224;2023-01-29T08:33:54;101159.88;;;3.55;76.91
70544;BME280;58097;48.364;-1.224;2023-01-29T08:36:20;101159.97;;;3.53;77.15
70544;BME280;58097;48.364;-1.224;2023-01-29T08:38:45;101163.56;;;3.54;76.92
70544;BME280;58097;48.364;-1.224;2023-01-29T08:41:11;101158.09;;;3.54;77.01
70544;BME280;58097;48.364;-1.224;2023-01-29T08:43:36;101160.94;;;3.52;77.17
70544;BME280;58097;48.364;-1.224;2023-01-29T08:46:06;101158.09;;;3.54;77.23
70544;BME280;58097;48.364;-1.224;2023-01-29T08:48:32;101158.19;;;3.52;77.17
70544;BME280;58097;48.364;-1.224;2023-01-29T08:50:58;101161.72;;;3.54;76.97
70544;BME280;58097;48.364;-1.224;2023-01-29T08:53:24;101171.69;;;3.55;77.19
70544;BME280;58097;48.364;-1.224;2023-01-29T08:55:50;101173.38;;;3.58;77.04
70544;BME280;58097;48.364;-1.224;2023-01-29T08:58:15;101175.22;;;3.57;77.03
70544;BME280;58097;48.364;-1.224;2023-01-29T09:00:41;101173.44;;;3.56;77.11
70544;BME280;58097;48.364;-1.224;2023-01-29T09:03:06;101172.56;;;3.56;77.05
70544;BME280;58097;48.364;-1.224;2023-01-29T09:05:33;101176.09;;;3.58;76.91
70544;BME280;58097;48.364;-1.224;2023-01-29T09:07:58;101180.69;;;3.57;76.92
70544;BME280;58097;48.364;-1.224;2023-01-29T09:10:24;101175.94;;;3.61;77.30
70544;BME280;58097;48.364;-1.224;2023-01-29T09:12:50;101175.84;;;3.62;77.06
70544;BME280;58097;48.364;-1.224;2023-01-29T09:15:15;101182.97;;;3.65;77.13
70544;BME280;58097;48.364;-1.224;2023-01-29T09:17:41;101172.84;;;3.67;76.95
70544;BME280;58097;48.364;-1.224;2023-01-29T09:20:08;101166.56;;;3.65;76.97
70544;BME280;58097;48.364;-1.224;2023-01-29T09:22:34;101182.81;;;3.68;76.94
70544;BME280;58097;48.364;-1.224;2023-01-29T09:24:59;101181.91;;;3.67;77.18
70544;BME280;58097;48.364;-1.224;2023-01-29T09:27:25;101171.88;;;3.68;77.16
70544;BME280;58097;48.364;-1.224;2023-01-29T09:29:50;101179.09;;;3.69;76.96
70544;BME280;58097;48.364;-1.224;2023-01-29T09:32:15;101166.50;;;3.66;76.66
70544;BME280;58097;48.364;-1.224;2023-01-29T09:34:41;101176.53;;;3.66;76.82
70544;BME280;58097;48.364;-1.224;2023-01-29T09:37:06;101166.41;;;3.68;76.80
70544;BME280;58097;48.364;-1.224;2023-01-29T09:39:32;101178.03;;;3.71;76.89
70544;BME280;58097;48.364;-1.224;2023-01-29T09:44:54;101174.09;;;3.77;76.38
70544;BME280;58097;48.364;-1.224;2023-01-29T09:47:23;101167.00;;;3.73;76.55
70544;BME280;58097;48.364;-1.224;2023-01-29T09:50:03;101173.28;;;3.75;76.47
70544;BME280;58097;48.364;-1.224;2023-01-29T09:52:41;101163.22;;;3.76;76.14
70544;BME280;58097;48.364;-1.224;2023-01-29T09:55:24;101157.13;;;3.70;76.18
70544;BME280;58097;48.364;-1.224;2023-01-29T09:57:58;101155.38;;;3.69;76.25
70544;BME280;58097;48.364;-1.224;2023-01-29T10:00:58;101169.94;;;3.70;76.31
70544;BME280;58097;48.364;-1.224;2023-01-29T10:12:02;101188.47;;;3.81;76.73
70544;BME280;58097;48.364;-1.224;2023-01-29T10:14:56;101181.84;;;3.85;76.99
70544;BME280;58097;48.364;-1.224;2023-01-29T10:25:21;101187.94;;;3.90;76.76
70544;BME280;58097;48.364;-1.224;2023-01-29T10:27:52;101183.19;;;3.93;76.95
70544;BME280;58097;48.364;-1.224;2023-01-29T10:32:53;101173.03;;;3.95;76.20
70544;BME280;58097;48.364;-1.224;2023-01-29T10:35:22;101171.09;;;3.97;76.21
70544;BME280;58097;48.364;-1.224;2023-01-29T10:37:53;101167.38;;;3.98;76.21
70544;BME280;58097;48.364;-1.224;2023-01-29T10:43:13;101153.59;;;4.00;76.31
70544;BME280;58097;48.364;-1.224;2023-01-29T10:48:32;101154.16;;;4.07;75.99
70544;BME280;58097;48.364;-1.224;2023-01-29T10:51:32;101156.00;;;4.06;75.85
70544;BME280;58097;48.364;-1.224;2023-01-29T10:57:33;101152.63;;;4.01;75.06
70544;BME280;58097;48.364;-1.224;2023-01-29T11:02:43;101148.50;;;4.10;75.45
70544;BME280;58097;48.364;-1.224;2023-01-29T11:05:34;101150.44;;;4.08;75.08
70544;BME280;58097;48.364;-1.224;2023-01-29T11:08:05;101149.66;;;4.06;75.42
70544;BME280;58097;48.364;-1.224;2023-01-29T11:10:36;101153.00;;;4.11;75.38
70544;BME280;58097;48.364;-1.224;2023-01-29T11:13:04;101148.78;;;4.05;74.69
70544;BME280;58097;48.364;-1.224;2023-01-29T11:15:31;101148.69;;;4.07;75.16
70544;BME280;58097;48.364;-1.224;2023-01-29T11:18:08;101144.00;;;4.09;74.97
70544;BME280;58097;48.364;-1.224;2023-01-29T11:20:38;101151.84;;;4.15;75.36
70544;BME280;58097;48.364;-1.224;2023-01-29T11:23:04;101144.25;;;4.20;75.27
70544;BME280;58097;48.364;-1.224;2023-01-29T11:25:30;101147.75;;;4.22;74.78
70544;BME280;58097;48.364;-1.224;2023-01-29T11:28:00;101147.75;;;4.22;74.79
70544;BME280;58097;48.364;-1.224;2023-01-29T11:30:40;101156.47;;;4.28;75.01
70544;BME280;58097;48.364;-1.224;2023-01-29T11:33:19;101140.66;;;4.33;75.07
70544;BME280;58097;48.364;-1.224;2023-01-29T11:35:45;101139.97;;;4.30;74.49
70544;BME280;58097;48.364;-1.224;2023-01-29T11:38:24;101140.53;;;4.37;75.25
70544;BME280;58097;48.364;-1.224;2023-01-29T11:40:51;101136.03;;;4.35;74.97
70544;BME280;58097;48.364;-1.224;2023-01-29T11:45:42;101122.56;;;4.31;74.38
70544;BME280;58097;48.364;-1.224;2023-01-29T11:48:19;101117.91;;;4.33;74.78
70544;BME280;58097;48.364;-1.224;2023-01-29T11:50:55;101116.22;;;4.30;73.99
70544;BME280;58097;48.364;-1.224;2023-01-29T11:53:29;101121.00;;;4.27;73.98
70544;BME280;58097;48.364;-1.224;2023-01-29T11:55:57;101123.38;;;4.33;74.62
70544;BME280;58097;48.364;-1.224;2023-01-29T11:58:28;101119.84;;;4.31;74.30
70544;BME280;58097;48.364;-1.224;2023-01-29T12:00:56;101124.78;;;4.40;75.26
70544;BME280;58097;48.364;-1.224;2023-01-29T12:03:54;101122.75;;;4.44;74.59
70544;BME280;58097;48.364;-1.224;2023-01-29T12:06:33;101114.63;;;4.42;74.76
70544;BME280;58097;48.364;-1.224;2023-01-29T12:09:01;101122.94;;;4.41;74.31
70544;BME280;58097;48.364;-1.224;2023-01-29T12:11:33;101117.06;;;4.47;74.68
70544;BME280;58097;48.364;-1.224;2023-01-29T12:14:01;101103.19;;;4.50;74.55
70544;BME280;58097;48.364;-1.224;2023-01-29T12:16:32;101106.63;;;4.53;74.73
70544;BME280;58097;48.364;-1.224;2023-01-29T12:21:48;101107.41;;;4.55;74.01
70544;BME280;58097;48.364;-1.224;2023-01-29T12:24:40;101097.44;;;4.54;74.34
70544;BME280;58097;48.364;-1.224;2023-01-29T12:27:11;101097.06;;;4.60;74.70
70544;BME280;58097;48.364;-1.224;2023-01-29T12:29:48;101097.78;;;4.64;75.15
70544;BME280;58097;48.364;-1.224;2023-01-29T12:35:11;101097.00;;;4.76;74.85
70544;BME280;58097;48.364;-1.224;2023-01-29T12:38:04;101092.00;;;4.83;75.27
70544;BME280;58097;48.364;-1.224;2023-01-29T12:40:40;101083.59;;;4.86;75.22
70544;BME280;58097;48.364;-1.224;2023-01-29T12:43:30;101083.31;;;4.90;74.61
70544;BME280;58097;48.364;-1.224;2023-01-29T12:45:58;101071.97;;;4.82;73.79
70544;BME280;58097;48.364;-1.224;2023-01-29T12:48:30;101071.09;;;4.82;74.25
70544;BME280;58097;48.364;-1.224;2023-01-29T12:51:04;101067.84;;;4.75;73.72
70544;BME280;58097;48.364;-1.224;2023-01-29T12:53:34;101067.16;;;4.72;74.00
70544;BME280;58097;48.364;-1.224;2023-01-29T12:56:12;101055.25;;;4.73;74.40
70544;BME280;58097;48.364;-1.224;2023-01-29T12:58:45;101052.69;;;4.70;73.86
70544;BME280;58097;48.364;-1.224;2023-01-29T13:01:14;101038.13;;;4.69;74.42
70544;BME280;58097;48.364;-1.224;2023-01-29T13:06:27;101038.91;;;4.71;74.58
70544;BME280;58097;48.364;-1.224;2023-01-29T13:08:56;101041.44;;;4.74;74.81
70544;BME280;58097;48.364;-1.224;2023-01-29T13:14:03;101019.44;;;4.76;74.89
70544;BME280;58097;48.364;-1.224;2023-01-29T13:16:39;101028.25;;;4.81;75.10
70544;BME280;58097;48.364;-1.224;2023-01-29T13:21:44;101033.53;;;4.84;75.06
70544;BME280;58097;48.364;-1.224;2023-01-29T13:24:20;101024.13;;;4.88;75.46
70544;BME280;58097;48.364;-1.224;2023-01-29T13:26:48;101022.16;;;4.90;75.01
70544;BME280;58097;48.364;-1.224;2023-01-29T13:29:24;101010.16;;;4.92;74.97
70544;BME280;58097;48.364;-1.224;2023-01-29T13:31:55;101005.72;;;4.90;74.74
70544;BME280;58097;48.364;-1.224;2023-01-29T13:34:24;101007.31;;;4.94;74.62
70544;BME280;58097;48.364;-1.224;2023-01-29T13:36:57;101000.25;;;4.90;74.12
70544;BME280;58097;48.364;-1.224;2023-01-29T13:39:28;100997.50;;;4.90;74.16
70544;BME280;58097;48.364;-1.224;2023-01-29T13:41:56;100987.53;;;4.89;74.38
70544;BME280;58097;48.364;-1.224;2023-01-29T13:44:25;100987.44;;;4.90;74.31
70544;BME280;58097;48.364;-1.224;2023-01-29T13:47:00;100985.69;;;4.89;74.52
70544;BME280;58097;48.364;-1.224;2023-01-29T13:49:30;100982.56;;;4.95;74.94
70544;BME280;58097;48.364;-1.224;2023-01-29T13:51:57;100981.47;;;4.98;75.01
70544;BME280;58097;48.364;-1.224;2023-01-29T13:54:24;100975.03;;;4.99;75.23
70544;BME280;58097;48.364;-1.224;2023-01-29T13:59:24;100977.56;;;5.02;75.22
70544;BME280;58097;48.364;-1.224;2023-01-29T14:02:34;100978.13;;;5.07;75.22
70544;BME280;58097;48.364;-1.224;2023-01-29T14:08:01;100976.41;;;4.92;75.08
70544;BME280;58097;48.364;-1.224;2023-01-29T14:10:29;100981.47;;;4.98;75.15
70544;BME280;58097;48.364;-1.224;2023-01-29T14:15:34;100970.41;;;4.85;75.18
70544;BME280;58097;48.364;-1.224;2023-01-29T14:34:02;100961.31;;;4.99;75.67
70544;BME280;58097;48.364;-1.224;2023-01-29T14:36:36;100964.94;;;5.00;75.40
70544;BME280;58097;48.364;-1.224;2023-01-29T14:39:03;100959.16;;;5.04;75.88
70544;BME280;58097;48.364;-1.224;2023-01-29T14:41:31;100962.69;;;5.06;75.34
70544;BME280;58097;48.364;-1.224;2023-01-29T14:44:45;100963.38;;;4.95;74.72
70544;BME280;58097;48.364;-1.224;2023-01-29T14:49:53;100967.22;;;4.93;75.28
70544;BME280;58097;48.364;-1.224;2023-01-29T14:52:36;100963.59;;;4.92;75.22
70544;BME280;58097;48.364;-1.224;2023-01-29T14:55:06;100963.66;;;4.91;75.36
70544;BME280;58097;48.364;-1.224;2023-01-29T14:57:33;100960.84;;;4.92;75.56
70544;BME280;58097;48.364;-1.224;2023-01-29T15:00:02;100958.19;;;4.91;75.25
70544;BME280;58097;48.364;-1.224;2023-01-29T15:02:55;100962.50;;;4.95;75.56
70544;BME280;58097;48.364;-1.224;2023-01-29T15:05:28;100954.09;;;4.98;75.58
70544;BME280;58097;48.364;-1.224;2023-01-29T15:07:58;100954.75;;;5.02;75.60
70544;BME280;58097;48.364;-1.224;2023-01-29T15:10:49;100954.97;;;4.98;75.16
70544;BME280;58097;48.364;-1.224;2023-01-29T15:13:43;100954.38;;;4.93;75.08
70544;BME280;58097;48.364;-1.224;2023-01-29T15:16:34;100960.34;;;4.86;75.29
70544;BME280;58097;48.364;-1.224;2023-01-29T15:19:13;100966.69;;;4.86;75.46